Time;durP1;ratioP1;P1;durP2;ratioP2;P2;SDS_P1;SDS_P2;PMS_P1;PMS_P2;Temp;Humidity;BMP_temperature;BMP_pressure;BME280_temperature;BME280_humidity;BME280_pressure;Samples;Min_cycle;Max_cycle;Signal;HPM_P1;HPM_P2
2023/05/22 00:01:37;;;;;;;5.40;5.00;;;16.10;99.90;;;;;;5050758;28;20687;-82
2023/05/22 00:04:04;;;;;;;6.00;5.50;;;16.10;99.90;;;;;;5051680;28;20211;-77
2023/05/22 00:06:32;;;;;;;6.00;5.40;;;16.20;99.90;;;;;;5056163;28;20202;-76
2023/05/22 00:08:59;;;;;;;5.25;4.95;;;16.10;99.90;;;;;;5059357;28;20316;-77
2023/05/22 00:11:27;;;;;;;5.53;5.13;;;16.20;99.90;;;;;;5050501;28;20247;-80
2023/05/22 00:13:53;;;;;;;5.70;5.20;;;16.20;99.90;;;;;;5051033;28;20564;-80
2023/05/22 00:16:20;;;;;;;5.82;5.28;;;16.20;99.90;;;;;;5051486;28;20249;-82
2023/05/22 00:18:49;;;;;;;5.90;5.40;;;16.20;99.90;;;;;;5051346;28;20249;-82
2023/05/22 00:21:17;;;;;;;5.55;5.13;;;16.20;99.90;;;;;;5050821;28;20266;-78
2023/05/22 00:23:44;;;;;;;5.88;5.38;;;16.20;99.90;;;;;;5050508;28;20293;-77
2023/05/22 00:26:14;;;;;;;5.30;4.90;;;16.10;99.90;;;;;;5050887;28;20210;-76
2023/05/22 00:28:41;;;;;;;6.05;5.50;;;16.10;99.90;;;;;;5050285;28;20203;-76
2023/05/22 00:31:08;;;;;;;5.40;4.90;;;16.10;99.90;;;;;;5050696;28;20246;-76
2023/05/22 00:33:35;;;;;;;5.68;5.18;;;16.10;99.90;;;;;;5050245;28;20239;-80
2023/05/22 00:36:04;;;;;;;5.07;4.68;;;16.10;99.90;;;;;;5051134;28;20245;-81
2023/05/22 00:38:32;;;;;;;5.18;4.68;;;16.10;99.90;;;;;;5050271;28;20246;-80
2023/05/22 00:40:59;;;;;;;4.97;4.57;;;16.10;99.90;;;;;;5036685;28;20234;-78
2023/05/22 00:43:26;;;;;;;5.35;4.95;;;16.10;99.90;;;;;;5049937;28;20627;-78
2023/05/22 00:45:53;;;;;;;5.93;5.13;;;16.10;99.90;;;;;;5050596;28;20243;-74
2023/05/22 00:48:20;;;;;;;5.22;4.82;;;16.00;99.90;;;;;;5051564;28;20206;-83
2023/05/22 00:50:47;;;;;;;5.30;4.80;;;16.00;99.90;;;;;;5050778;28;20260;-76
2023/05/22 00:53:16;;;;;;;4.90;4.50;;;16.10;99.90;;;;;;5050889;28;20297;-78
2023/05/22 00:55:44;;;;;;;4.22;3.83;;;16.10;99.90;;;;;;5049786;28;20557;-78
2023/05/22 00:58:13;;;;;;;5.10;4.70;;;16.10;99.90;;;;;;5050447;28;20238;-77
2023/05/22 01:00:41;;;;;;;5.10;4.60;;;16.00;99.90;;;;;;5050000;28;20246;-79
2023/05/22 01:03:09;;;;;;;4.78;4.38;;;16.00;99.90;;;;;;5050106;28;20249;-82
2023/05/22 01:05:38;;;;;;;6.45;5.05;;;16.00;99.90;;;;;;5050202;28;20211;-81
2023/05/22 01:08:06;;;;;;;6.13;5.40;;;16.00;99.90;;;;;;5050194;28;20265;-81
2023/05/22 01:10:37;;;;;;;5.45;5.03;;;16.10;99.90;;;;;;5050109;28;20308;-81
2023/05/22 01:13:13;;;;;;;5.85;5.28;;;16.10;99.90;;;;;;5051382;28;20238;-81
2023/05/22 01:15:47;;;;;;;5.13;4.72;;;16.10;99.90;;;;;;5042241;28;20242;-79
2023/05/22 01:18:20;;;;;;;5.70;5.30;;;16.10;99.90;;;;;;5036119;28;20215;-81
2023/05/22 01:20:52;;;;;;;5.40;5.00;;;16.00;99.90;;;;;;5039923;28;20226;-79
2023/05/22 01:23:52;;;;;;;5.45;4.95;;;16.00;99.90;;;;;;5049750;28;20784;-79
2023/05/22 01:26:43;;;;;;;5.80;5.25;;;16.00;99.90;;;;;;5050361;28;20213;-80
2023/05/22 01:29:26;;;;;;;6.82;5.75;;;16.10;99.90;;;;;;5053679;28;20245;-80
2023/05/22 01:31:57;;;;;;;6.00;5.60;;;16.00;99.90;;;;;;5050092;28;20247;-86
2023/05/22 01:34:25;;;;;;;6.85;6.32;;;16.00;99.90;;;;;;5046311;28;20230;-82
2023/05/22 01:36:53;;;;;;;6.70;6.20;;;16.00;99.90;;;;;;5054935;28;20234;-85
2023/05/22 01:39:20;;;;;;;7.32;6.72;;;16.00;99.90;;;;;;5054824;28;20220;-79
2023/05/22 01:41:47;;;;;;;6.50;5.90;;;16.00;99.90;;;;;;5053739;28;20261;-84
2023/05/22 01:44:15;;;;;;;6.10;5.57;;;16.00;99.90;;;;;;5054418;28;20210;-83
2023/05/22 01:46:41;;;;;;;6.45;5.90;;;16.00;99.90;;;;;;5053537;28;20656;-80
2023/05/22 01:49:10;;;;;;;6.97;6.40;;;16.00;99.90;;;;;;5047287;28;20211;-78
2023/05/22 01:51:47;;;;;;;7.65;6.95;;;16.00;99.90;;;;;;5046234;28;20249;-85
2023/05/22 01:54:19;;;;;;;10.13;7.10;;;16.00;99.90;;;;;;5054437;28;20241;-84
2023/05/22 01:56:53;;;;;;;7.63;6.95;;;15.80;99.90;;;;;;5053267;28;20238;-79
2023/05/22 01:59:29;;;;;;;7.88;6.88;;;15.70;99.90;;;;;;5054231;28;20214;-79
2023/05/22 02:01:58;;;;;;;7.30;6.60;;;15.70;99.90;;;;;;5053530;28;20230;-78
2023/05/22 02:04:29;;;;;;;6.75;6.15;;;15.70;99.90;;;;;;5053105;28;20234;-75
2023/05/22 02:06:59;;;;;;;8.23;6.97;;;15.80;99.90;;;;;;5054252;28;20242;-84
2023/05/22 02:09:30;;;;;;;7.30;6.35;;;15.80;99.90;;;;;;5053364;28;20207;-83
2023/05/22 02:11:59;;;;;;;6.53;5.90;;;15.80;99.90;;;;;;5053908;28;20217;-83
2023/05/22 02:14:26;;;;;;;6.53;5.93;;;15.70;99.90;;;;;;5053515;28;20203;-83
2023/05/22 02:16:53;;;;;;;6.43;5.85;;;15.60;99.90;;;;;;5053749;28;20242;-75
2023/05/22 02:19:20;;;;;;;6.53;6.03;;;15.70;99.90;;;;;;5053613;28;20214;-82
2023/05/22 02:21:48;;;;;;;6.25;5.65;;;15.70;99.90;;;;;;5053096;28;20234;-79
2023/05/22 02:24:16;;;;;;;6.57;5.78;;;15.70;99.90;;;;;;5037867;28;20243;-81
2023/05/22 02:26:43;;;;;;;6.68;6.18;;;15.70;99.90;;;;;;5052542;28;20242;-83
2023/05/22 02:29:11;;;;;;;5.85;5.45;;;15.60;99.90;;;;;;5053328;28;20206;-82
2023/05/22 02:31:38;;;;;;;5.88;5.32;;;15.50;99.90;;;;;;5052893;28;20203;-81
2023/05/22 02:34:05;;;;;;;6.72;6.13;;;15.50;99.90;;;;;;5053319;28;20238;-79
2023/05/22 02:36:32;;;;;;;6.07;5.57;;;15.60;99.90;;;;;;5052611;28;20567;-78
2023/05/22 02:39:00;;;;;;;6.03;5.60;;;15.70;99.90;;;;;;5052715;28;20590;-81
2023/05/22 02:41:27;;;;;;;8.23;6.70;;;15.70;99.90;;;;;;5052457;28;20247;-77
2023/05/22 02:43:54;;;;;;;6.55;6.05;;;15.70;99.90;;;;;;5052600;28;20660;-78
2023/05/22 02:46:21;;;;;;;7.03;6.28;;;15.80;99.90;;;;;;5052871;28;20215;-80
2023/05/22 02:48:48;;;;;;;6.85;6.22;;;15.80;99.90;;;;;;5052674;28;20210;-80
2023/05/22 02:51:15;;;;;;;5.95;5.45;;;15.80;99.90;;;;;;5052964;28;20234;-80
2023/05/22 02:53:42;;;;;;;7.15;6.65;;;15.70;99.90;;;;;;5051822;28;20706;-80
2023/05/22 02:56:11;;;;;;;6.90;6.25;;;15.70;99.90;;;;;;5052573;28;20202;-80
2023/05/22 02:58:38;;;;;;;7.20;6.60;;;15.70;99.90;;;;;;5052055;28;20621;-80
2023/05/22 03:01:07;;;;;;;6.43;5.93;;;15.70;99.90;;;;;;5052477;28;20261;-81
2023/05/22 03:03:34;;;;;;;6.50;6.03;;;15.70;99.90;;;;;;5051657;28;20230;-80
2023/05/22 03:06:02;;;;;;;7.30;6.70;;;15.70;99.90;;;;;;5052682;28;20207;-80
2023/05/22 03:08:30;;;;;;;6.78;6.20;;;15.70;99.90;;;;;;5048906;28;20216;-80
2023/05/22 03:10:58;;;;;;;8.10;7.50;;;15.70;99.90;;;;;;5036352;28;20229;-79
2023/05/22 03:13:27;;;;;;;6.45;5.85;;;15.70;99.90;;;;;;5045393;28;20238;-78
2023/05/22 03:15:54;;;;;;;6.75;6.18;;;15.70;99.90;;;;;;5044699;28;20700;-78
2023/05/22 03:18:21;;;;;;;8.32;7.53;;;15.70;99.90;;;;;;5052871;28;20237;-80
2023/05/22 03:20:48;;;;;;;8.32;6.63;;;15.70;99.90;;;;;;5052250;28;20213;-82
2023/05/22 03:23:15;;;;;;;7.20;6.60;;;15.70;99.90;;;;;;5045598;28;20323;-79
2023/05/22 03:25:42;;;;;;;7.00;6.43;;;15.70;99.90;;;;;;5044348;28;20207;-80
2023/05/22 03:28:09;;;;;;;7.30;6.60;;;15.70;99.90;;;;;;5042902;28;20272;-79
2023/05/22 03:30:38;;;;;;;7.22;6.30;;;15.70;99.90;;;;;;5051650;28;20641;-80
2023/05/22 03:33:05;;;;;;;7.07;6.47;;;15.60;99.90;;;;;;5050246;28;20379;-78
2023/05/22 03:35:33;;;;;;;6.80;6.20;;;15.60;99.90;;;;;;5050820;28;20211;-82
2023/05/22 03:37:59;;;;;;;6.47;5.88;;;15.50;99.90;;;;;;5051924;28;20211;-82
2023/05/22 03:40:26;;;;;;;6.30;5.80;;;15.50;99.90;;;;;;5051089;28;20211;-83
2023/05/22 03:42:53;;;;;;;6.03;5.38;;;15.50;99.90;;;;;;5051959;28;20262;-78
2023/05/22 03:45:20;;;;;;;7.45;6.93;;;15.60;99.90;;;;;;5052759;28;20246;-81
2023/05/22 03:47:49;;;;;;;6.97;6.20;;;15.60;99.90;;;;;;5051790;28;20217;-76
2023/05/22 03:50:16;;;;;;;7.93;7.22;;;15.60;99.90;;;;;;5051518;28;20210;-80
2023/05/22 03:52:42;;;;;;;6.88;6.15;;;15.60;99.90;;;;;;5050829;28;20230;-80
2023/05/22 03:55:10;;;;;;;7.28;6.68;;;15.60;99.90;;;;;;5051437;28;20311;-81
2023/05/22 03:57:37;;;;;;;7.22;6.63;;;15.50;99.90;;;;;;5051339;28;20207;-80
2023/05/22 04:00:08;;;;;;;7.90;7.20;;;15.50;99.90;;;;;;5051735;28;20245;-87
2023/05/22 04:02:37;;;;;;;8.88;7.80;;;15.40;99.90;;;;;;5050854;28;20721;-78
2023/05/22 04:05:08;;;;;;;8.02;7.32;;;15.40;99.90;;;;;;5047059;28;20213;-82
2023/05/22 04:07:35;;;;;;;8.15;7.45;;;15.40;99.90;;;;;;5051221;28;20242;-83
2023/05/22 04:10:02;;;;;;;7.35;6.70;;;15.40;99.90;;;;;;5051428;28;20207;-76
2023/05/22 04:12:29;;;;;;;8.57;7.80;;;15.50;99.90;;;;;;5051089;28;20317;-81
2023/05/22 04:14:56;;;;;;;7.00;6.40;;;15.50;99.90;;;;;;5051600;28;20241;-84
2023/05/22 04:17:23;;;;;;;8.70;7.28;;;15.50;99.90;;;;;;5051424;28;20238;-76
2023/05/22 04:19:50;;;;;;;7.22;6.38;;;15.50;99.90;;;;;;5051771;28;20242;-84
2023/05/22 04:22:19;;;;;;;7.97;7.28;;;15.50;99.90;;;;;;5051262;28;20234;-78
2023/05/22 04:24:47;;;;;;;8.30;7.68;;;15.50;99.90;;;;;;5037259;28;20199;-81
2023/05/22 04:27:15;;;;;;;8.88;7.82;;;15.50;99.90;;;;;;5051704;28;20207;-80
2023/05/22 04:29:43;;;;;;;8.18;7.47;;;15.50;99.90;;;;;;5050736;28;20207;-80
2023/05/22 04:32:10;;;;;;;11.98;9.45;;;15.50;99.90;;;;;;5051219;28;20207;-85
2023/05/22 04:34:37;;;;;;;8.13;7.43;;;15.50;99.90;;;;;;5048902;28;20740;-81
2023/05/22 04:37:05;;;;;;;8.77;8.07;;;15.50;99.90;;;;;;5049522;28;20238;-85
2023/05/22 04:39:34;;;;;;;8.90;8.10;;;15.50;99.90;;;;;;5050161;28;20315;-83
2023/05/22 04:42:04;;;;;;;14.50;8.93;;;15.50;99.90;;;;;;5050912;28;20202;-80
2023/05/22 04:44:33;;;;;;;8.55;7.85;;;15.50;99.90;;;;;;5049866;28;20239;-81
2023/05/22 04:47:00;;;;;;;10.68;9.20;;;15.50;99.90;;;;;;5050064;28;20290;-81
2023/05/22 04:49:28;;;;;;;8.68;7.95;;;15.50;99.90;;;;;;5049497;28;20246;-80
2023/05/22 04:51:56;;;;;;;10.80;9.82;;;15.50;99.90;;;;;;5050051;28;20677;-79
2023/05/22 04:54:23;;;;;;;10.00;9.10;;;15.50;99.90;;;;;;5050571;28;20605;-79
2023/05/22 04:56:51;;;;;;;9.32;8.52;;;15.50;99.90;;;;;;5050584;28;20692;-79
2023/05/22 04:59:22;;;;;;;9.18;8.27;;;15.50;99.90;;;;;;5049857;28;20207;-83
2023/05/22 05:01:49;;;;;;;9.70;8.80;;;15.50;99.90;;;;;;5050019;28;20221;-84
2023/05/22 05:04:16;;;;;;;9.88;8.98;;;15.50;99.90;;;;;;5050993;28;20242;-84
2023/05/22 05:06:43;;;;;;;11.57;9.35;;;15.50;99.90;;;;;;5050595;28;20221;-81
2023/05/22 05:09:10;;;;;;;9.32;8.55;;;15.40;99.90;;;;;;5050284;28;20246;-81
2023/05/22 05:11:39;;;;;;;9.30;8.40;;;15.50;99.90;;;;;;5049951;28;20229;-82
2023/05/22 05:14:07;;;;;;;10.15;9.15;;;15.50;99.90;;;;;;5049852;28;20206;-83
2023/05/22 05:16:34;;;;;;;10.38;9.48;;;15.50;99.90;;;;;;5050632;28;20243;-82
2023/05/22 05:19:02;;;;;;;11.52;9.48;;;15.50;99.90;;;;;;5049062;28;20207;-81
2023/05/22 05:21:30;;;;;;;8.77;8.07;;;15.50;99.90;;;;;;5048172;28;20294;-82
2023/05/22 05:23:57;;;;;;;9.35;8.55;;;15.50;99.90;;;;;;5038508;28;20235;-82
2023/05/22 05:26:24;;;;;;;11.05;9.70;;;15.40;99.90;;;;;;5047836;28;20368;-83
2023/05/22 05:28:51;;;;;;;10.80;8.43;;;15.40;99.90;;;;;;5051178;28;20238;-85
2023/05/22 05:31:20;;;;;;;11.45;10.10;;;15.50;99.90;;;;;;5046502;28;20261;-82
2023/05/22 05:33:47;;;;;;;11.45;10.38;;;15.40;99.90;;;;;;5044467;28;20269;-86
2023/05/22 05:36:15;;;;;;;11.65;10.55;;;15.30;99.90;;;;;;5049992;28;20253;-87
2023/05/22 05:38:42;;;;;;;10.82;9.93;;;15.30;99.90;;;;;;5037772;28;20238;-89
2023/05/22 05:41:09;;;;;;;11.00;10.02;;;15.30;99.90;;;;;;5050292;28;20257;-83
2023/05/22 05:43:36;;;;;;;10.93;9.85;;;15.30;99.90;;;;;;5049508;28;20234;-84
2023/05/22 05:46:02;;;;;;;11.80;10.65;;;15.30;99.90;;;;;;5049334;28;20203;-86
2023/05/22 05:48:31;;;;;;;10.48;9.57;;;15.30;99.90;;;;;;5049277;28;20238;-84
2023/05/22 05:50:58;;;;;;;11.10;10.05;;;15.40;99.90;;;;;;5050477;28;20250;-87
2023/05/22 05:53:25;;;;;;;11.88;10.35;;;15.30;99.90;;;;;;5049850;28;20207;-75
2023/05/22 05:55:52;;;;;;;12.25;11.00;;;15.30;99.90;;;;;;5050389;28;20199;-85
2023/05/22 05:58:19;;;;;;;12.40;9.93;;;15.30;99.90;;;;;;5050141;28;20207;-85
2023/05/22 06:00:46;;;;;;;12.02;10.88;;;15.40;99.90;;;;;;5053486;28;20215;-84
2023/05/22 06:03:13;;;;;;;11.75;10.55;;;15.40;99.90;;;;;;5052988;28;20281;-83
2023/05/22 06:05:41;;;;;;;12.13;10.32;;;15.30;99.90;;;;;;5053253;28;20203;-86
2023/05/22 06:08:08;;;;;;;12.18;10.98;;;15.30;99.90;;;;;;5053221;28;20682;-88
2023/05/22 06:10:35;;;;;;;12.40;11.27;;;15.30;99.90;;;;;;5053278;28;20670;-85
2023/05/22 06:13:02;;;;;;;11.65;10.55;;;15.20;99.90;;;;;;5054125;28;20207;-78
2023/05/22 06:15:30;;;;;;;11.73;10.63;;;15.20;99.90;;;;;;5053457;28;20292;-86
2023/05/22 06:17:57;;;;;;;11.40;10.40;;;15.10;99.90;;;;;;5053609;28;20214;-86
2023/05/22 06:20:24;;;;;;;11.98;10.90;;;15.10;99.90;;;;;;5043384;28;20245;-84
2023/05/22 06:22:53;;;;;;;11.18;10.18;;;15.20;99.90;;;;;;5050805;28;20239;-87
2023/05/22 06:25:20;;;;;;;21.45;12.18;;;15.30;99.90;;;;;;5043862;28;20202;-86
2023/05/22 06:27:47;;;;;;;12.13;10.85;;;15.40;99.90;;;;;;5053160;28;20337;-86
2023/05/22 06:30:14;;;;;;;12.45;10.95;;;15.50;99.90;;;;;;5053869;28;20297;-84
2023/05/22 06:32:41;;;;;;;12.57;11.38;;;15.60;99.90;;;;;;5053162;28;20242;-86
2023/05/22 06:35:09;;;;;;;14.15;10.65;;;15.60;99.90;;;;;;5039851;28;20214;-87
2023/05/22 06:37:37;;;;;;;12.65;11.00;;;15.60;99.90;;;;;;5053123;28;20215;-75
2023/05/22 06:40:07;;;;;;;13.20;10.65;;;15.70;99.90;;;;;;5067527;28;20207;-86
2023/05/22 06:42:34;;;;;;;13.75;10.98;;;15.80;99.90;;;;;;5044686;28;20207;-84
2023/05/22 06:45:01;;;;;;;11.63;10.23;;;16.00;99.90;;;;;;5052271;28;20231;-84
2023/05/22 06:47:28;;;;;;;12.10;11.02;;;16.20;99.90;;;;;;5052357;28;20231;-84
2023/05/22 06:49:55;;;;;;;15.18;12.18;;;16.40;99.90;;;;;;5049675;28;20682;-76
2023/05/22 06:52:22;;;;;;;12.38;11.32;;;16.50;99.90;;;;;;5053073;28;20203;-79
2023/05/22 06:54:49;;;;;;;17.33;14.00;;;16.50;99.90;;;;;;5052596;28;20203;-81
2023/05/22 06:57:17;;;;;;;13.52;12.13;;;16.60;99.90;;;;;;5053501;28;20235;-83
2023/05/22 06:59:44;;;;;;;13.18;11.93;;;16.70;99.90;;;;;;5049758;28;20264;-80
2023/05/22 07:02:11;;;;;;;13.23;11.93;;;16.80;99.90;;;;;;5050970;28;20680;-75
2023/05/22 07:04:38;;;;;;;13.93;12.73;;;16.90;99.90;;;;;;5050864;28;20270;-84
2023/05/22 07:07:05;;;;;;;14.15;12.68;;;17.00;99.90;;;;;;5052424;28;20709;-77
2023/05/22 07:09:33;;;;;;;14.00;12.60;;;17.10;99.90;;;;;;5052660;28;20264;-80
2023/05/22 07:12:00;;;;;;;17.42;13.75;;;17.20;99.90;;;;;;5051559;28;20202;-75
2023/05/22 07:14:28;;;;;;;13.20;11.80;;;17.10;99.90;;;;;;5048043;28;20234;-80
2023/05/22 07:16:55;;;;;;;14.77;13.13;;;17.20;99.90;;;;;;5052447;28;20238;-77
2023/05/22 07:19:22;;;;;;;13.07;11.80;;;17.30;99.90;;;;;;5052475;28;20249;-83
2023/05/22 07:21:49;;;;;;;17.13;14.55;;;17.60;99.90;;;;;;5046771;28;20234;-80
2023/05/22 07:24:16;;;;;;;15.30;13.80;;;18.10;99.90;;;;;;5035139;28;20270;-83
2023/05/22 07:26:45;;;;;;;12.93;11.73;;;18.00;99.90;;;;;;5050505;28;20234;-81
2023/05/22 07:29:13;;;;;;;13.60;12.40;;;18.00;99.90;;;;;;5052194;28;20215;-80
2023/05/22 07:31:41;;;;;;;12.23;10.95;;;17.90;99.90;;;;;;5050429;28;20206;-86
2023/05/22 07:34:08;;;;;;;9.93;8.93;;;17.80;99.90;;;;;;5051074;28;20229;-84
2023/05/22 07:36:35;;;;;;;11.10;10.10;;;17.70;99.90;;;;;;5051629;28;20213;-83
2023/05/22 07:39:03;;;;;;;11.57;10.50;;;17.70;99.90;;;;;;5051806;28;20329;-84
2023/05/22 07:41:30;;;;;;;11.02;10.05;;;17.90;99.90;;;;;;5051513;28;20198;-80
2023/05/22 07:43:57;;;;;;;11.02;9.95;;;17.90;99.90;;;;;;5049275;28;20265;-82
2023/05/22 07:46:24;;;;;;;10.95;10.05;;;17.80;99.90;;;;;;5049017;28;20242;-85
2023/05/22 07:48:53;;;;;;;12.35;11.25;;;17.80;99.90;;;;;;5044727;28;20711;-87
2023/05/22 07:51:20;;;;;;;10.82;9.80;;;17.80;99.90;;;;;;5047864;28;20682;-81
2023/05/22 07:53:47;;;;;;;12.00;10.82;;;17.90;99.90;;;;;;5050640;28;20253;-82
2023/05/22 07:56:14;;;;;;;10.10;9.05;;;17.90;99.90;;;;;;5046065;28;20261;-82
2023/05/22 07:58:41;;;;;;;11.38;10.38;;;18.00;99.90;;;;;;5048891;28;20253;-81
2023/05/22 08:01:08;;;;;;;9.60;8.57;;;18.00;99.90;;;;;;5050433;28;20234;-77
2023/05/22 08:03:35;;;;;;;11.07;9.95;;;17.90;99.90;;;;;;5047909;28;20249;-80
2023/05/22 08:06:03;;;;;;;11.63;10.52;;;17.80;99.90;;;;;;5047216;28;20210;-84
2023/05/22 08:08:31;;;;;;;10.20;9.23;;;17.80;99.90;;;;;;5051145;28;20222;-84
2023/05/22 08:10:58;;;;;;;10.10;9.30;;;17.80;99.90;;;;;;5046159;28;20217;-80
2023/05/22 08:13:25;;;;;;;11.05;9.95;;;17.80;99.90;;;;;;5051155;28;20261;-77
2023/05/22 08:15:52;;;;;;;11.43;10.48;;;17.80;99.90;;;;;;5049714;28;20256;-87
2023/05/22 08:18:21;;;;;;;10.52;9.43;;;17.70;99.90;;;;;;5050870;28;20206;-76
2023/05/22 08:20:48;;;;;;;10.77;9.68;;;17.60;99.90;;;;;;5049067;28;20217;-88
2023/05/22 08:23:16;;;;;;;11.13;10.23;;;17.70;99.90;;;;;;5044366;28;20239;-82
2023/05/22 08:25:43;;;;;;;9.63;8.77;;;17.90;99.90;;;;;;5049777;28;20273;-87
2023/05/22 08:28:10;;;;;;;9.15;8.18;;;18.00;99.90;;;;;;5049486;28;20238;-83
2023/05/22 08:30:37;;;;;;;9.60;8.43;;;18.10;99.90;;;;;;5048152;28;20237;-81
2023/05/22 08:33:04;;;;;;;8.85;7.95;;;18.60;99.90;;;;;;5047751;28;20240;-82
2023/05/22 08:35:31;;;;;;;9.40;8.40;;;18.70;99.90;;;;;;5048526;28;20214;-79
2023/05/22 08:37:58;;;;;;;9.27;8.45;;;18.60;99.90;;;;;;5049449;28;20641;-81
2023/05/22 08:40:34;;;;;;;10.30;8.90;;;18.60;99.90;;;;;;5047590;28;20202;-80
2023/05/22 08:43:01;;;;;;;9.80;9.00;;;18.50;99.90;;;;;;5046617;28;20252;-81
2023/05/22 08:45:28;;;;;;;8.20;7.50;;;18.60;99.90;;;;;;5055874;28;20256;-82
2023/05/22 08:47:57;;;;;;;8.30;7.25;;;18.60;99.90;;;;;;5054466;28;20214;-81
2023/05/22 08:50:25;;;;;;;10.18;9.05;;;18.70;99.90;;;;;;5046306;28;20214;-71
2023/05/22 08:52:56;;;;;;;8.77;7.93;;;18.70;99.90;;;;;;5051040;28;20682;-84
2023/05/22 08:55:23;;;;;;;10.05;9.15;;;18.70;99.90;;;;;;5045196;28;20256;-83
2023/05/22 08:57:52;;;;;;;9.50;8.45;;;18.70;99.90;;;;;;5046238;28;20249;-81
2023/05/22 09:00:21;;;;;;;9.32;8.35;;;18.60;99.90;;;;;;5051252;28;20237;-78
2023/05/22 09:02:49;;;;;;;8.85;7.95;;;18.60;99.90;;;;;;5050444;28;20250;-87
2023/05/22 09:05:16;;;;;;;9.48;8.20;;;18.40;99.90;;;;;;5048741;28;20768;-77
2023/05/22 09:07:44;;;;;;;8.35;7.40;;;18.40;99.90;;;;;;5050309;28;20298;-92
2023/05/22 09:10:11;;;;;;;8.48;7.68;;;18.50;99.90;;;;;;5045149;28;20211;-86
2023/05/22 09:12:38;;;;;;;7.90;7.18;;;18.50;99.90;;;;;;5049005;28;20682;-86
2023/05/22 09:15:12;;;;;;;8.85;8.10;;;18.70;99.90;;;;;;5049999;28;20253;-89
2023/05/22 09:17:40;;;;;;;10.85;9.75;;;18.50;99.90;;;;;;5039461;28;20674;-79
2023/05/22 09:20:12;;;;;;;8.80;8.07;;;18.40;99.90;;;;;;5044660;28;20221;-86
2023/05/22 09:22:39;;;;;;;7.85;7.13;;;18.50;99.90;;;;;;5038565;28;20210;-85
2023/05/22 09:25:06;;;;;;;7.97;7.25;;;18.70;99.90;;;;;;5050819;28;20791;-81
2023/05/22 09:27:33;;;;;;;8.25;7.50;;;18.90;99.90;;;;;;5050117;28;20288;-81
2023/05/22 09:30:00;;;;;;;7.93;7.25;;;19.30;99.90;;;;;;5050902;28;20615;-79
2023/05/22 09:32:31;;;;;;;7.57;6.72;;;19.90;99.90;;;;;;5050030;28;20250;-81
2023/05/22 09:35:03;;;;;;;7.65;6.93;;;20.30;99.90;;;;;;5053118;28;20245;-87
2023/05/22 09:37:34;;;;;;;6.45;5.85;;;20.90;99.90;;;;;;5054425;28;20250;-88
2023/05/22 09:40:05;;;;;;;8.98;7.35;;;20.40;99.90;;;;;;5055635;28;20218;-87
2023/05/22 09:42:33;;;;;;;6.18;5.68;;;20.00;99.90;;;;;;5056267;28;20211;-87
2023/05/22 09:45:04;;;;;;;7.25;6.45;;;19.70;99.90;;;;;;5054249;28;20617;-81
2023/05/22 09:47:33;;;;;;;6.68;6.00;;;19.40;99.90;;;;;;5054792;28;20257;-87
2023/05/22 09:50:05;;;;;;;7.20;6.55;;;19.30;99.90;;;;;;5054666;28;20286;-91
2023/05/22 09:52:34;;;;;;;7.10;6.20;;;19.20;99.90;;;;;;5046148;28;20211;-86
2023/05/22 09:55:05;;;;;;;6.07;5.47;;;19.10;99.90;;;;;;5054759;28;20245;-82
2023/05/22 09:57:36;;;;;;;6.70;6.20;;;19.10;99.90;;;;;;5052833;28;20203;-90
2023/05/22 10:00:08;;;;;;;6.35;5.75;;;19.10;99.90;;;;;;5054500;28;20295;-87
2023/05/22 10:02:38;;;;;;;6.97;6.43;;;18.90;99.90;;;;;;5052714;28;20213;-84
2023/05/22 10:05:07;;;;;;;7.03;6.40;;;18.80;99.90;;;;;;5054651;28;20270;-87
2023/05/22 10:07:37;;;;;;;6.10;5.57;;;18.70;99.90;;;;;;5047877;28;20294;-85
2023/05/22 10:10:07;;;;;;;7.00;6.20;;;18.60;99.90;;;;;;5059232;28;20295;-79
2023/05/22 10:12:45;;;;;;;10.13;5.78;;;18.60;99.90;;;;;;5050558;28;20203;-82
2023/05/22 10:15:12;;;;;;;8.18;5.85;;;18.70;99.90;;;;;;5053603;28;20233;-79
2023/05/22 10:17:41;;;;;;;11.57;5.72;;;18.80;99.90;;;;;;5053330;28;20648;-81
2023/05/22 10:20:09;;;;;;;7.00;6.40;;;18.80;99.90;;;;;;5053344;28;20215;-77
2023/05/22 10:22:37;;;;;;;6.68;5.28;;;18.90;99.90;;;;;;5050939;28;20210;-78
2023/05/22 10:25:06;;;;;;;6.20;5.70;;;19.00;99.90;;;;;;5051460;28;20327;-82
2023/05/22 10:27:33;;;;;;;7.00;6.35;;;19.20;99.90;;;;;;5053186;28;20570;-78
2023/05/22 10:30:10;;;;;;;6.20;5.60;;;19.30;99.90;;;;;;5035632;28;20249;-80
2023/05/22 10:32:44;;;;;;;5.68;5.18;;;19.40;99.90;;;;;;5053137;28;20234;-78
2023/05/22 10:35:19;;;;;;;7.45;6.85;;;19.60;99.90;;;;;;5053284;28;20238;-81
2023/05/22 10:37:50;;;;;;;6.93;6.00;;;19.70;99.90;;;;;;5050341;28;20639;-78
2023/05/22 10:40:27;;;;;;;6.20;5.70;;;19.90;99.90;;;;;;5042678;28;20211;-80
2023/05/22 10:42:58;;;;;;;6.35;5.85;;;20.40;99.90;;;;;;5056511;28;20585;-74
2023/05/22 10:45:27;;;;;;;6.05;5.55;;;20.80;99.90;;;;;;5051882;28;20237;-75
2023/05/22 10:48:04;;;;;;;6.63;5.90;;;20.90;99.90;;;;;;5052826;28;20746;-77
2023/05/22 10:50:31;;;;;;;7.38;5.45;;;20.80;99.90;;;;;;5052308;28;20636;-79
2023/05/22 10:53:23;;;;;;;5.30;4.88;;;20.60;99.90;;;;;;5052740;28;20642;-76
2023/05/22 10:55:51;;;;;;;5.40;5.00;;;20.30;99.90;;;;;;5052835;28;20751;-74
2023/05/22 10:58:24;;;;;;;5.55;5.05;;;20.00;99.90;;;;;;5053210;28;20199;-76
2023/05/22 11:01:11;;;;;;;7.00;5.90;;;19.80;99.90;;;;;;5052978;28;20749;-74
2023/05/22 11:03:57;;;;;;;6.10;5.35;;;19.70;99.90;;;;;;5043511;28;20249;-73
2023/05/22 11:06:34;;;;;;;5.47;4.97;;;19.70;99.90;;;;;;5047805;28;20219;-73
2023/05/22 11:09:17;;;;;;;5.05;4.57;;;19.60;99.90;;;;;;5043322;28;20235;-75
2023/05/22 11:11:44;;;;;;;5.60;5.15;;;19.60;99.90;;;;;;5040670;28;20214;-76
2023/05/22 11:14:11;;;;;;;5.10;4.53;;;19.70;99.90;;;;;;5049294;28;20293;-78
2023/05/22 11:16:39;;;;;;;5.35;4.93;;;19.70;99.90;;;;;;5053540;28;20215;-76
2023/05/22 11:19:08;;;;;;;6.35;5.75;;;19.80;99.90;;;;;;5051768;28;20242;-76
2023/05/22 11:21:36;;;;;;;6.32;5.68;;;19.90;99.90;;;;;;5048627;28;20227;-79
2023/05/22 11:24:03;;;;;;;6.30;5.70;;;20.20;99.90;;;;;;5039197;28;20265;-69
2023/05/22 11:26:31;;;;;;;6.53;6.03;;;20.40;99.90;;;;;;5050720;28;20722;-79
2023/05/22 11:29:00;;;;;;;5.90;5.47;;;20.50;99.90;;;;;;5050785;28;20234;-79
2023/05/22 11:31:27;;;;;;;5.53;5.10;;;20.50;99.90;;;;;;5051652;28;20238;-72
2023/05/22 11:33:54;;;;;;;6.30;5.30;;;20.30;99.90;;;;;;5046656;28;20218;-75
2023/05/22 11:36:23;;;;;;;6.72;5.10;;;20.20;99.90;;;;;;5050569;28;20570;-75
2023/05/22 11:38:50;;;;;;;7.85;7.05;;;20.10;99.90;;;;;;5051030;28;20243;-77
2023/05/22 11:41:17;;;;;;;6.22;5.60;;;20.10;99.90;;;;;;5050024;28;20261;-78
2023/05/22 11:43:44;;;;;;;39.80;20.35;;;20.20;99.90;;;;;;5050805;28;20241;-77
2023/05/22 11:46:12;;;;;;;14.25;7.22;;;20.20;99.90;;;;;;5050601;28;20775;-80
2023/05/22 11:48:42;;;;;;;5.60;5.10;;;20.20;99.90;;;;;;5051031;28;20207;-75
2023/05/22 11:51:10;;;;;;;8.45;5.18;;;20.30;99.90;;;;;;5051544;28;20288;-77
2023/05/22 11:53:38;;;;;;;6.22;5.63;;;20.30;99.90;;;;;;5050983;28;20674;-76
2023/05/22 11:56:05;;;;;;;6.13;5.63;;;20.70;99.90;;;;;;5050530;28;20269;-75
2023/05/22 11:58:32;;;;;;;4.80;4.40;;;21.00;99.90;;;;;;5050561;28;20246;-77
2023/05/22 12:01:00;;;;;;;9.07;6.00;;;20.90;99.90;;;;;;5037950;28;20686;-77
2023/05/22 12:03:28;;;;;;;4.57;4.20;;;20.90;99.90;;;;;;5048550;28;20713;-77
2023/05/22 12:05:56;;;;;;;10.38;5.90;;;20.70;99.90;;;;;;5050991;28;20277;-73
2023/05/22 12:08:24;;;;;;;7.18;5.47;;;20.70;99.90;;;;;;5051140;28;20246;-70
2023/05/22 12:10:54;;;;;;;5.53;5.13;;;20.60;99.90;;;;;;5051097;28;20214;-77
2023/05/22 12:13:25;;;;;;;4.47;4.07;;;20.40;99.90;;;;;;5051565;28;20207;-74
2023/05/22 12:15:54;;;;;;;6.28;4.60;;;20.40;99.90;;;;;;5051261;28;20234;-74
2023/05/22 12:18:21;;;;;;;5.10;4.60;;;20.50;99.90;;;;;;5051448;28;20298;-79
2023/05/22 12:20:53;;;;;;;5.65;4.93;;;20.50;99.90;;;;;;5050477;28;20237;-74
2023/05/22 12:23:26;;;;;;;6.38;5.05;;;20.60;99.90;;;;;;5044258;28;20261;-76
2023/05/22 12:25:59;;;;;;;5.72;4.22;;;20.60;99.90;;;;;;5044893;28;20658;-73
2023/05/22 12:28:26;;;;;;;5.57;4.13;;;20.60;99.90;;;;;;5037602;28;20245;-75
2023/05/22 12:30:54;;;;;;;5.88;5.38;;;20.50;99.90;;;;;;5051319;28;20242;-70
2023/05/22 12:33:26;;;;;;;6.05;4.60;;;20.40;99.90;;;;;;5050977;28;20217;-75
2023/05/22 12:35:53;;;;;;;4.40;4.00;;;20.40;99.90;;;;;;5050846;28;20207;-70
2023/05/22 12:38:25;;;;;;;5.28;4.05;;;20.30;99.90;;;;;;5051021;28;20253;-70
2023/05/22 12:40:53;;;;;;;5.75;4.95;;;20.20;99.90;;;;;;5051125;28;20243;-79
2023/05/22 12:43:22;;;;;;;5.95;5.45;;;20.10;99.90;;;;;;5051000;28;20309;-74
2023/05/22 12:45:49;;;;;;;5.63;5.13;;;20.10;99.90;;;;;;5050847;28;20266;-69
2023/05/22 12:48:16;;;;;;;9.93;5.97;;;20.10;99.90;;;;;;5050248;28;20207;-74
2023/05/22 12:50:45;;;;;;;8.40;5.72;;;20.00;99.90;;;;;;5050601;28;20210;-75